Tropical Cyclones
[Index]
Season 2017-2018 Tropical Cyclone HILDA Track Map
Season 2017-2018 Summaries (Operational Data): [AU] [SIO] [SPAC] [SH]
<<- Previous TC | 2017-2018 Season | Next TC ->>

click for intensity scale information  Lat/long Grid: Show Hide

 Date Labels: Show Hide

Operational Tropical Cyclone Data : JTWC Advisories

Name: HILDA
Number: 1802

22 Dec 2017 12:00 UTC to 31 Dec 2017 12:00 UTC

    date/time    lat    long     hPa   cat  kts
2017-12-22 12    7.4   122.1                 15          
2017-12-22 18    7.5   122.3    1010         15          
2017-12-23 00    8.3   126.0    1004         20          
2017-12-23 12    8.7   126.8    1004         20          
2017-12-24 00    9.1   129.5    1007         20          
2017-12-24 06   10.0   126.4    1007         20          
2017-12-24 12   10.9   126.2    1003         20          
2017-12-24 12   10.8   125.1    1010         15          
2017-12-25 00   11.1   126.0    1005         15          
2017-12-25 06   10.7   126.8    1004         15          
2017-12-25 12   12.9   125.6    1004         20          
2017-12-25 18   13.9   125.2    1004         20          
2017-12-26 00   14.4   123.9    1004         20          
2017-12-26 06   14.8   123.3                 20          
2017-12-26 12   15.4   123.2                 25          
2017-12-26 18   16.0   123.1                 25          
2017-12-27 00   16.6   122.8    1000         30          
2017-12-27 06   17.4   122.5    1003         25          
2017-12-27 12   18.0   122.0            2    50          
2017-12-27 18   18.9   121.6     995    1    40          
2017-12-28 00   19.4   121.7     998    1    35          
2017-12-28 06   19.9   121.6    1000         30          
2017-12-28 12   20.1   121.8    1000         30          
2017-12-28 18   20.3   122.1    1001         25          
2017-12-29 00   21.1   122.6    1004         25          
2017-12-29 06   21.5   123.0    1000         30          
2017-12-29 12   21.9   123.4                 25          
2017-12-29 18   22.4   123.6    1007         20          
2017-12-30 00   22.8   123.5                             
2017-12-30 06   23.3   123.5    1004         20          
2017-12-30 12   23.7   123.5    1007         20          
2017-12-30 18   24.0   123.8    1007         20          
2017-12-31 00   25.7   126.2    1007         20          
2017-12-31 06   25.7   126.2    1007         20          
2017-12-31 12   26.1   128.0    1007         20          
Winds are 10-min average.

Tropical cyclone tracks developed by Michael Bath using operational warnings and advisories and Google Maps.


Document: tropical_cyclone_hilda.htm
Updated: 17 June 2020
[Australian Severe Weather index] [Copyright Notice] [Email Contacts] [Search This Site] [Privacy Policy]


Main Index Home Page Stock Weather Photos Extreme Storms Discussion Storm News and Storm Chasing Reports Tropical Cyclones / Hurricanes / Typhoons Weather Data and Links Wild Fires / Bushfires Weather Observation Techniques Weather Picture Catalogue Tornado Pictures and Reports Stock Video Footage and DVDs for sale